Time;durP1;ratioP1;P1;durP2;ratioP2;P2;SDS_P1;SDS_P2;PMS_P1;PMS_P2;Temp;Humidity;BMP_temperature;BMP_pressure;BME280_temperature;BME280_humidity;BME280_pressure;Samples;Min_cycle;Max_cycle;Signal;HPM_P1;HPM_P2
2020/12/23 00:00:08;;;;;;;50.93;26.93;;;10.50;99.90;;;-146.47;100.00;66290.13;4934676;29;20779;-77
2020/12/23 00:02:52;;;;;;;42.23;25.23;;;10.60;99.90;;;-146.47;100.00;66290.13;4934394;29;20234;-78
2020/12/23 00:05:37;;;;;;;43.23;24.00;;;10.50;99.90;;;-146.47;100.00;66290.13;4934624;29;20254;-77
2020/12/23 00:08:22;;;;;;;41.53;23.17;;;10.50;99.90;;;-146.47;100.00;66290.13;4935382;29;20306;-77
2020/12/23 00:11:07;;;;;;;44.57;24.37;;;10.50;99.90;;;-146.47;100.00;66290.13;4941661;29;20230;-78
2020/12/23 00:13:53;;;;;;;40.87;23.00;;;10.50;99.90;;;-146.47;100.00;66290.13;4944232;29;20238;-78
2020/12/23 00:16:41;;;;;;;44.87;23.30;;;10.50;99.90;;;-146.47;100.00;66290.13;4947476;29;20285;-77
2020/12/23 00:19:27;;;;;;;41.47;23.10;;;10.50;99.90;;;-146.47;100.00;66290.13;4935010;29;20202;-78
2020/12/23 00:22:12;;;;;;;46.07;23.20;;;10.50;99.90;;;-146.47;100.00;66290.13;4937249;29;20226;-79
2020/12/23 00:24:57;;;;;;;41.60;22.77;;;10.50;99.90;;;-146.47;100.00;66290.13;4939174;29;20210;-78
2020/12/23 00:27:42;;;;;;;53.97;24.63;;;10.40;99.90;;;-146.47;100.00;66290.13;4944582;29;20219;-78
2020/12/23 00:30:28;;;;;;;64.57;28.30;;;10.40;99.90;;;-146.47;100.00;66290.13;4934139;29;20234;-79
2020/12/23 00:33:14;;;;;;;68.97;29.90;;;10.40;99.90;;;-146.47;100.00;66290.13;4936836;29;20239;-77
2020/12/23 00:35:59;;;;;;;76.00;32.67;;;10.50;99.90;;;-146.47;100.00;66290.13;4947619;29;20210;-79
2020/12/23 00:38:45;;;;;;;90.10;34.37;;;10.50;99.90;;;-146.47;100.00;66290.13;4934528;29;20275;-78
2020/12/23 00:41:29;;;;;;;81.67;34.43;;;10.50;99.90;;;-146.47;100.00;66290.13;4944357;29;20619;-77
2020/12/23 00:44:16;;;;;;;95.47;34.93;;;10.60;99.90;;;-146.47;100.00;66290.13;4948417;29;20614;-79
2020/12/23 00:47:01;;;;;;;92.20;37.80;;;10.60;99.90;;;-146.47;100.00;66290.13;4937699;29;20222;-78
2020/12/23 00:49:47;;;;;;;95.40;38.60;;;10.60;99.90;;;-146.47;100.00;66290.13;4950092;29;20250;-78
2020/12/23 00:52:32;;;;;;;98.40;40.40;;;10.60;99.90;;;-146.47;100.00;66290.13;4946039;29;20238;-77
2020/12/23 00:55:17;;;;;;;93.53;37.57;;;10.70;99.90;;;-146.47;100.00;66290.13;4941333;29;20251;-78
2020/12/23 00:58:03;;;;;;;94.03;37.93;;;10.70;99.90;;;-146.47;100.00;66290.13;4943345;29;20235;-78
2020/12/23 01:00:48;;;;;;;98.67;42.60;;;10.70;99.90;;;-146.47;100.00;66290.13;4941956;28;20218;-77
2020/12/23 01:03:33;;;;;;;99.80;36.33;;;10.80;99.90;;;-146.47;100.00;66290.13;4933150;29;20925;-76
2020/12/23 01:06:19;;;;;;;91.60;36.10;;;10.80;99.90;;;-146.47;100.00;66290.13;4942231;28;20283;-77
2020/12/23 01:09:04;;;;;;;105.87;43.40;;;10.80;99.90;;;-146.47;100.00;66290.13;4939620;29;20700;-77
2020/12/23 01:11:51;;;;;;;91.23;40.63;;;10.80;99.90;;;-146.47;100.00;66290.13;4941558;29;20857;-77
2020/12/23 01:14:36;;;;;;;96.40;39.33;;;10.90;99.90;;;-146.47;100.00;66290.13;4933450;29;20238;-78
2020/12/23 01:17:21;;;;;;;93.47;38.10;;;10.90;99.90;;;-146.47;100.00;66290.13;4940657;29;20294;-77
2020/12/23 01:20:07;;;;;;;92.83;38.67;;;10.90;99.90;;;-146.47;100.00;66290.13;4951366;29;20246;-77
2020/12/23 01:22:53;;;;;;;92.63;37.87;;;10.90;99.90;;;-146.47;100.00;66290.13;4943651;29;20306;-78
2020/12/23 01:25:38;;;;;;;98.63;41.80;;;11.00;99.90;;;-146.47;100.00;66290.13;4947268;29;20239;-78
2020/12/23 01:28:23;;;;;;;97.40;37.50;;;11.00;99.90;;;-146.47;100.00;66290.13;4934061;29;20227;-78
2020/12/23 01:31:08;;;;;;;87.33;36.03;;;11.00;99.90;;;-146.47;100.00;66290.13;4934821;29;20223;-77
2020/12/23 01:33:54;;;;;;;100.33;37.80;;;11.10;99.90;;;-146.47;100.00;66290.13;4946764;29;20324;-79
2020/12/23 01:36:39;;;;;;;108.30;39.10;;;11.10;99.90;;;-146.47;100.00;66290.13;4936852;29;20214;-77
2020/12/23 01:39:25;;;;;;;115.17;41.87;;;11.10;99.90;;;-146.47;100.00;66290.13;4946245;29;20238;-77
2020/12/23 01:42:10;;;;;;;120.63;46.20;;;11.10;99.90;;;-146.47;100.00;66290.13;4940683;29;20266;-78
2020/12/23 01:44:55;;;;;;;140.03;45.47;;;11.10;99.90;;;-146.47;100.00;66290.13;4940541;29;20290;-77
2020/12/23 01:47:45;;;;;;;120.23;45.40;;;11.20;99.90;;;-146.47;100.00;66290.13;4941938;29;20227;-78
2020/12/23 01:50:31;;;;;;;137.13;45.37;;;11.20;99.90;;;-146.47;100.00;66290.13;4954111;28;20575;-79
2020/12/23 01:53:19;;;;;;;133.57;47.97;;;11.30;99.90;;;-146.47;100.00;66290.13;4936309;29;20247;-78
2020/12/23 01:56:08;;;;;;;127.57;47.40;;;11.30;99.90;;;-146.47;100.00;66290.13;4951659;29;20210;-78
2020/12/23 01:58:53;;;;;;;124.93;43.40;;;11.30;99.90;;;-146.47;100.00;66290.13;4944989;29;20246;-78
2020/12/23 02:01:47;;;;;;;119.83;43.33;;;11.30;99.90;;;-146.47;100.00;66290.13;4944719;28;20259;-78
2020/12/23 02:04:32;;;;;;;119.43;40.83;;;11.30;99.90;;;-146.47;100.00;66290.13;4946433;29;20694;-78
2020/12/23 02:07:18;;;;;;;115.77;42.07;;;11.30;99.90;;;-146.47;100.00;66290.13;4946289;29;20705;-78
2020/12/23 02:10:07;;;;;;;114.63;38.83;;;11.40;99.90;;;-146.47;100.00;66290.13;4940853;29;20756;-78
2020/12/23 02:12:54;;;;;;;118.73;41.03;;;11.40;99.90;;;-146.47;100.00;66290.13;4942714;28;20261;-77
2020/12/23 02:15:39;;;;;;;121.70;41.07;;;11.40;99.90;;;-146.47;100.00;66290.13;4939037;29;20217;-78
2020/12/23 02:18:24;;;;;;;111.13;41.50;;;11.40;99.90;;;-146.47;100.00;66290.13;4939187;29;20246;-77
2020/12/23 02:21:10;;;;;;;104.10;37.97;;;11.40;99.90;;;-146.47;100.00;66290.13;4937318;29;20821;-78
2020/12/23 02:23:56;;;;;;;92.77;36.70;;;11.40;99.90;;;-146.47;100.00;66290.13;4935742;29;20239;-77
2020/12/23 02:26:41;;;;;;;107.47;39.30;;;11.50;99.90;;;-146.47;100.00;66290.13;4941533;28;20219;-78
2020/12/23 02:29:26;;;;;;;102.77;36.73;;;11.50;99.90;;;-146.47;100.00;66290.13;4949070;29;20585;-78
2020/12/23 02:32:11;;;;;;;100.17;37.93;;;11.50;99.90;;;-146.47;100.00;66290.13;4950066;28;20233;-77
2020/12/23 02:34:56;;;;;;;91.83;40.27;;;11.50;99.90;;;-146.47;100.00;66290.13;4945182;29;20289;-77
2020/12/23 02:37:42;;;;;;;101.07;39.07;;;11.50;99.90;;;-146.47;100.00;66290.13;4936723;29;20214;-77
2020/12/23 02:40:27;;;;;;;79.30;33.63;;;11.50;99.90;;;-146.47;100.00;66290.13;4936272;29;20791;-78
2020/12/23 02:43:13;;;;;;;93.37;35.93;;;11.50;99.90;;;-146.47;100.00;66290.13;4935183;29;20266;-76
2020/12/23 02:45:58;;;;;;;99.03;37.60;;;11.50;99.90;;;-146.47;100.00;66290.13;4949144;29;20278;-77
2020/12/23 02:48:43;;;;;;;90.60;36.37;;;11.50;99.90;;;-146.47;100.00;66290.13;4945837;28;20257;-77
2020/12/23 02:51:29;;;;;;;89.43;37.60;;;11.60;99.90;;;-146.47;100.00;66290.13;4942068;29;20346;-78
2020/12/23 02:54:16;;;;;;;82.97;35.33;;;11.60;99.90;;;-146.47;100.00;66290.13;4940092;28;20238;-77
2020/12/23 02:57:03;;;;;;;80.40;34.20;;;11.60;99.90;;;-146.47;100.00;66290.13;4945099;28;20680;-77
2020/12/23 02:59:48;;;;;;;91.20;38.43;;;11.60;99.90;;;-146.47;100.00;66290.13;4941880;28;20210;-78
2020/12/23 03:02:33;;;;;;;89.73;36.77;;;11.60;99.90;;;-146.47;100.00;66290.13;4949192;28;20239;-78
2020/12/23 03:05:18;;;;;;;81.37;34.63;;;11.60;99.90;;;-146.47;100.00;66290.13;4935229;29;20215;-77
2020/12/23 03:08:04;;;;;;;74.50;33.37;;;11.70;99.90;;;-146.47;100.00;66290.13;4950603;28;20708;-77
2020/12/23 03:10:49;;;;;;;71.33;32.10;;;11.70;99.90;;;-146.47;100.00;66290.13;4955005;28;20273;-79
2020/12/23 03:13:35;;;;;;;65.60;30.70;;;11.70;99.90;;;-146.47;100.00;66290.13;4940665;28;20265;-77
2020/12/23 03:16:20;;;;;;;77.40;34.33;;;11.70;99.90;;;-146.47;100.00;66290.13;4954718;29;20209;-78
2020/12/23 03:19:05;;;;;;;73.87;32.37;;;11.70;99.90;;;-146.47;100.00;66290.13;4948462;29;20218;-77
2020/12/23 03:21:50;;;;;;;78.73;33.93;;;11.70;99.90;;;-146.47;100.00;66290.13;4948209;28;20218;-78
2020/12/23 03:24:35;;;;;;;77.53;32.37;;;11.70;99.90;;;-146.47;100.00;66290.13;4945987;29;20258;-78
2020/12/23 03:27:21;;;;;;;69.77;32.63;;;11.70;99.90;;;-146.47;100.00;66290.13;4937131;29;20202;-78
2020/12/23 03:30:07;;;;;;;66.87;31.03;;;11.70;99.90;;;-146.47;100.00;66290.13;4937314;29;20222;-78
2020/12/23 03:32:52;;;;;;;65.40;31.67;;;11.70;99.90;;;-146.47;100.00;66290.13;4943460;29;20230;-78
2020/12/23 03:35:37;;;;;;;64.03;32.03;;;11.80;99.90;;;-146.47;100.00;66290.13;4950378;29;20296;-77
2020/12/23 03:38:23;;;;;;;71.60;34.70;;;11.70;99.90;;;-146.47;100.00;66290.13;4935489;29;20205;-78
2020/12/23 03:41:08;;;;;;;68.43;30.63;;;11.80;99.90;;;-146.47;100.00;66290.13;4934965;29;20210;-77
2020/12/23 03:43:53;;;;;;;68.93;33.67;;;11.80;99.90;;;-146.47;100.00;66290.13;4936646;29;20238;-78
2020/12/23 03:46:39;;;;;;;70.43;33.23;;;11.80;99.90;;;-146.47;100.00;66290.13;4954350;29;20229;-78
2020/12/23 03:49:24;;;;;;;67.00;31.47;;;11.80;99.90;;;-146.47;100.00;66290.13;4939713;29;20233;-78
2020/12/23 03:52:09;;;;;;;76.10;32.40;;;11.80;99.90;;;-146.47;100.00;66290.13;4940893;29;20242;-78
2020/12/23 03:54:54;;;;;;;73.97;35.23;;;11.80;99.90;;;-146.47;100.00;66290.13;4933847;29;20227;-78
2020/12/23 03:57:39;;;;;;;73.23;34.67;;;11.80;99.90;;;-146.47;100.00;66290.13;4948159;29;20210;-78
2020/12/23 04:00:24;;;;;;;70.63;35.03;;;11.90;99.90;;;-146.47;100.00;66290.13;4946200;28;20226;-78
2020/12/23 04:03:11;;;;;;;75.50;34.87;;;11.90;99.90;;;-146.47;100.00;66290.13;4951412;29;20225;-77
2020/12/23 04:05:55;;;;;;;74.23;34.33;;;11.90;99.90;;;-146.47;100.00;66290.13;4934764;29;20214;-77
2020/12/23 04:08:41;;;;;;;76.43;32.23;;;11.90;99.90;;;-146.47;100.00;66290.13;4934805;29;20259;-77
2020/12/23 04:11:26;;;;;;;71.87;33.83;;;11.90;99.90;;;-146.47;100.00;66290.13;4947950;28;20243;-77
2020/12/23 04:14:11;;;;;;;79.57;35.40;;;11.90;99.90;;;-146.47;100.00;66290.13;4944967;29;20266;-77
2020/12/23 04:16:56;;;;;;;92.57;37.07;;;11.90;99.90;;;-146.47;100.00;66290.13;4940811;29;20270;-77
2020/12/23 04:19:42;;;;;;;85.90;37.23;;;11.90;99.90;;;-146.47;100.00;66290.13;4950215;29;20577;-78
2020/12/23 04:22:28;;;;;;;71.10;32.87;;;11.90;99.90;;;-146.47;100.00;66290.13;4944592;29;20602;-78
2020/12/23 04:25:13;;;;;;;83.20;34.43;;;12.00;99.90;;;-146.47;100.00;66290.13;4947531;29;20202;-78
2020/12/23 04:27:59;;;;;;;83.77;34.83;;;11.90;99.90;;;-146.47;100.00;66290.13;4934179;29;20285;-78
2020/12/23 04:30:47;;;;;;;74.13;32.80;;;12.00;99.90;;;-146.47;100.00;66290.13;4952057;29;20606;-78
2020/12/23 04:33:32;;;;;;;85.13;35.07;;;12.00;99.90;;;-146.47;100.00;66290.13;4937940;29;20241;-78
2020/12/23 04:36:18;;;;;;;71.13;31.03;;;12.00;99.90;;;-146.47;100.00;66290.13;4934707;29;20580;-78
2020/12/23 04:39:04;;;;;;;62.97;29.33;;;12.00;99.90;;;-146.47;100.00;66290.13;4938851;29;20585;-78
2020/12/23 04:41:48;;;;;;;66.57;31.07;;;12.00;99.90;;;-146.47;100.00;66290.13;4941937;29;20292;-78
2020/12/23 04:44:35;;;;;;;75.53;33.80;;;12.00;99.90;;;-146.47;100.00;66290.13;4941666;29;20210;-78
2020/12/23 04:47:26;;;;;;;61.67;30.17;;;12.00;99.90;;;-146.47;100.00;66290.13;4939550;29;20259;-80
2020/12/23 04:50:13;;;;;;;63.53;30.37;;;12.00;99.90;;;-146.47;100.00;66290.13;4936560;29;20239;-78
2020/12/23 04:53:00;;;;;;;59.97;26.77;;;12.00;99.90;;;-146.47;100.00;66290.13;4941107;29;20229;-83
2020/12/23 04:55:45;;;;;;;54.23;28.67;;;12.10;99.90;;;-146.47;100.00;66290.13;4942853;29;20252;-78
2020/12/23 04:58:31;;;;;;;51.93;27.73;;;12.10;99.90;;;-146.47;100.00;66290.13;4954285;29;20597;-78
2020/12/23 05:01:15;;;;;;;50.07;29.33;;;12.10;99.90;;;-146.47;100.00;66290.13;4941970;29;20207;-78
2020/12/23 05:04:01;;;;;;;49.13;27.47;;;12.10;99.90;;;-146.47;100.00;66290.13;4946527;29;20254;-77
2020/12/23 05:06:47;;;;;;;40.27;23.97;;;12.10;99.90;;;-146.47;100.00;66290.13;4955961;29;20210;-78
2020/12/23 05:09:33;;;;;;;41.80;25.60;;;12.10;99.90;;;-146.47;100.00;66290.13;4957937;29;20285;-79
2020/12/23 05:12:20;;;;;;;44.17;25.07;;;12.10;99.90;;;-146.47;100.00;66290.13;4955057;29;20238;-79
2020/12/23 05:15:07;;;;;;;40.43;23.07;;;12.10;99.90;;;-146.47;100.00;66290.13;4945924;29;20577;-77
2020/12/23 05:17:52;;;;;;;39.83;22.40;;;12.10;99.90;;;-146.47;100.00;66290.13;4948740;29;20318;-77
2020/12/23 05:20:38;;;;;;;44.37;23.53;;;12.10;99.90;;;-146.47;100.00;66290.13;4939346;29;20206;-78
2020/12/23 05:23:24;;;;;;;41.07;21.97;;;12.10;99.90;;;-146.47;100.00;66290.13;4962688;29;20362;-78
2020/12/23 05:26:11;;;;;;;37.60;22.20;;;12.10;99.90;;;-146.47;100.00;66290.13;4955981;29;20751;-77
2020/12/23 05:28:58;;;;;;;33.90;21.07;;;12.10;99.90;;;-146.47;100.00;66290.13;4951124;29;20294;-77
2020/12/23 05:31:44;;;;;;;32.23;19.67;;;12.10;99.90;;;-146.47;100.00;66290.13;4956969;29;20222;-78
2020/12/23 05:34:34;;;;;;;28.53;19.30;;;12.10;99.90;;;-146.47;100.00;66290.13;4946401;29;20323;-78
2020/12/23 05:37:20;;;;;;;25.73;15.87;;;12.10;99.90;;;-146.47;100.00;66290.13;4960696;29;20206;-77
2020/12/23 05:40:06;;;;;;;26.40;14.80;;;12.20;99.90;;;-146.47;100.00;66290.13;4951767;28;20205;-78
2020/12/23 05:42:52;;;;;;;19.27;12.20;;;12.10;99.90;;;-146.47;100.00;66290.13;4957073;28;20230;-78
2020/12/23 05:45:42;;;;;;;21.87;14.03;;;12.10;99.90;;;-146.47;100.00;66290.13;4940457;29;20209;-76
2020/12/23 05:48:29;;;;;;;19.97;13.00;;;12.10;99.90;;;-146.47;100.00;66290.13;4935425;29;20266;-76
2020/12/23 05:51:14;;;;;;;19.10;13.10;;;12.10;99.90;;;-146.47;100.00;66290.13;4935897;29;20234;-77
2020/12/23 05:54:00;;;;;;;16.47;10.97;;;12.20;99.90;;;-146.47;100.00;66290.13;4948630;29;20270;-76
2020/12/23 05:56:45;;;;;;;15.93;10.37;;;12.20;99.90;;;-146.47;100.00;66290.13;4935717;28;20225;-77
2020/12/23 05:59:31;;;;;;;14.73;10.47;;;12.20;99.90;;;-146.47;100.00;66290.13;4936135;29;20242;-76
2020/12/23 06:02:24;;;;;;;16.60;10.67;;;12.20;99.90;;;-146.47;100.00;66290.13;4936060;29;20234;-76
2020/12/23 06:05:10;;;;;;;15.90;11.43;;;12.20;99.90;;;-146.47;100.00;66290.13;4945415;29;20585;-77
2020/12/23 06:08:02;;;;;;;17.70;12.57;;;12.20;99.90;;;-146.47;100.00;66290.13;4935574;29;20346;-77
2020/12/23 06:11:07;;;;;;;22.47;14.87;;;12.20;99.90;;;-146.47;100.00;66290.13;4948338;29;20242;-77
2020/12/23 06:14:18;;;;;;;21.00;13.73;;;12.20;99.90;;;-146.47;100.00;66290.13;4951903;29;20225;-77
2020/12/23 06:17:07;;;;;;;21.27;16.60;;;12.20;99.90;;;-146.47;100.00;66290.13;4939502;29;20206;-77
2020/12/23 06:19:56;;;;;;;24.47;18.43;;;12.20;99.90;;;-146.47;100.00;66290.13;4939860;29;20295;-77
2020/12/23 06:22:46;;;;;;;22.40;16.57;;;12.20;99.90;;;-146.47;100.00;66290.13;4948234;29;20237;-77
2020/12/23 06:25:46;;;;;;;25.00;18.80;;;12.30;99.90;;;-146.47;100.00;66290.13;4954736;29;20293;-77
2020/12/23 06:28:39;;;;;;;25.87;17.63;;;12.30;99.90;;;-146.47;100.00;66290.13;4943271;28;20202;-77
2020/12/23 06:31:30;;;;;;;21.90;15.37;;;12.30;99.90;;;-146.47;100.00;66290.13;4943337;29;20230;-77
2020/12/23 06:34:18;;;;;;;20.13;14.37;;;12.30;99.90;;;-146.47;100.00;66290.13;4934840;29;20242;-76
2020/12/23 06:37:16;;;;;;;23.53;16.33;;;12.30;99.90;;;-146.47;100.00;66290.13;4944591;29;20205;-77
2020/12/23 06:40:09;;;;;;;21.17;15.07;;;12.40;99.90;;;-146.47;100.00;66290.13;4949586;29;20210;-80
2020/12/23 06:42:54;;;;;;;20.57;14.63;;;12.40;99.90;;;-146.47;100.00;66290.13;4947182;29;20242;-79
2020/12/23 06:45:54;;;;;;;20.83;14.53;;;12.30;99.90;;;-146.47;100.00;66290.13;4958052;28;20227;-79
2020/12/23 06:48:39;;;;;;;17.77;12.30;;;12.40;99.90;;;-146.47;100.00;66290.13;4937630;28;20810;-77
2020/12/23 06:51:41;;;;;;;17.57;12.53;;;12.40;99.90;;;-146.47;100.00;66290.13;4948689;28;20219;-77
2020/12/23 06:54:47;;;;;;;19.60;12.03;;;12.40;99.90;;;-146.47;100.00;66290.13;4941465;28;20298;-79
2020/12/23 06:57:54;;;;;;;17.17;11.47;;;12.40;99.90;;;-146.47;100.00;66290.13;4949607;29;20206;-77
2020/12/23 07:00:42;;;;;;;17.43;12.50;;;12.40;99.90;;;-146.47;100.00;66290.13;4943926;29;20727;-77
2020/12/23 07:03:32;;;;;;;15.47;12.53;;;12.40;99.90;;;-146.47;100.00;66290.13;4951706;29;20263;-77
2020/12/23 07:06:34;;;;;;;19.07;13.53;;;12.40;99.90;;;-146.47;100.00;66290.13;4943764;29;20235;-77
2020/12/23 07:09:23;;;;;;;17.10;10.97;;;12.40;99.90;;;-146.47;100.00;66290.13;4936013;29;20213;-77
2020/12/23 07:12:10;;;;;;;16.53;12.67;;;12.50;99.90;;;-146.47;100.00;66290.13;4934857;29;20259;-76
2020/12/23 07:15:06;;;;;;;13.97;10.63;;;12.50;99.90;;;-146.47;100.00;66290.13;4947706;29;20561;-76
2020/12/23 07:17:53;;;;;;;15.40;11.40;;;12.50;99.90;;;-146.47;100.00;66290.13;4949744;29;20581;-77
2020/12/23 07:20:46;;;;;;;14.00;11.80;;;12.50;99.90;;;-146.47;100.00;66290.13;4950734;29;20267;-77
2020/12/23 07:23:33;;;;;;;13.40;9.73;;;12.50;99.90;;;-146.47;100.00;66290.13;4948003;29;20919;-79
2020/12/23 07:26:24;;;;;;;15.27;10.77;;;12.50;99.90;;;-146.47;100.00;66290.13;4952110;29;20210;-77
2020/12/23 07:29:10;;;;;;;15.17;9.57;;;12.50;99.90;;;-146.47;100.00;66290.13;4951982;28;20222;-79
2020/12/23 07:31:56;;;;;;;13.53;10.10;;;12.50;99.90;;;-146.47;100.00;66290.13;4951372;28;20226;-80
2020/12/23 07:34:49;;;;;;;15.20;11.27;;;12.50;99.90;;;-146.47;100.00;66290.13;4952603;29;20265;-80
2020/12/23 07:37:40;;;;;;;15.30;12.03;;;12.50;99.90;;;-146.47;100.00;66290.13;4950464;29;20211;-79
2020/12/23 07:40:27;;;;;;;16.17;11.27;;;12.60;99.90;;;-146.47;100.00;66290.13;4949991;29;20206;-77
2020/12/23 07:43:16;;;;;;;14.83;10.23;;;12.60;99.90;;;-146.47;100.00;66290.13;4952998;29;20230;-79
2020/12/23 07:46:01;;;;;;;14.33;10.63;;;12.60;99.90;;;-146.47;100.00;66290.13;4954511;29;20619;-77
2020/12/23 07:48:48;;;;;;;13.77;10.60;;;12.60;99.90;;;-146.47;100.00;66290.13;4954026;29;20592;-79
2020/12/23 07:51:38;;;;;;;12.67;8.60;;;12.60;99.90;;;-146.47;100.00;66290.13;4948555;29;20262;-77
2020/12/23 07:54:23;;;;;;;11.50;8.83;;;12.60;99.90;;;-146.47;100.00;66290.13;4952196;29;20210;-77
2020/12/23 07:57:08;;;;;;;13.07;9.87;;;12.60;99.90;;;-146.47;100.00;66290.13;4947446;29;20210;-77
2020/12/23 08:00:01;;;;;;;11.70;8.47;;;12.60;99.90;;;-146.47;100.00;66290.13;4948154;28;20202;-77
2020/12/23 08:02:47;;;;;;;9.20;6.33;;;12.70;99.90;;;-146.47;100.00;66290.13;4947313;29;20792;-77
2020/12/23 08:05:32;;;;;;;12.00;8.40;;;12.60;99.90;;;-146.47;100.00;66290.13;4940727;29;20206;-77
2020/12/23 08:08:27;;;;;;;10.33;7.80;;;12.70;99.90;;;-146.47;100.00;66290.13;4947683;29;20206;-77
2020/12/23 08:11:14;;;;;;;10.47;7.47;;;12.70;99.90;;;-146.47;100.00;66290.13;4948980;29;20277;-79
2020/12/23 08:14:02;;;;;;;10.50;8.13;;;12.60;99.90;;;-146.47;100.00;66290.13;4944517;29;20211;-77
2020/12/23 08:16:48;;;;;;;9.20;7.80;;;12.70;99.90;;;-146.47;100.00;66290.13;4932756;29;20218;-77
2020/12/23 08:19:33;;;;;;;10.60;7.47;;;12.70;99.90;;;-146.47;100.00;66290.13;4939977;29;20274;-77
2020/12/23 08:22:18;;;;;;;8.23;6.73;;;12.70;99.90;;;-146.47;100.00;66290.13;4929167;29;20274;-77
2020/12/23 08:25:11;;;;;;;9.40;6.90;;;12.70;99.90;;;-146.47;100.00;66290.13;4943955;29;20262;-77
2020/12/23 08:27:59;;;;;;;8.63;6.77;;;12.70;99.90;;;-146.47;100.00;66290.13;4950410;28;20213;-80
2020/12/23 08:30:45;;;;;;;8.97;7.30;;;12.70;99.90;;;-146.47;100.00;66290.13;4949491;29;20225;-79
2020/12/23 08:33:34;;;;;;;8.13;6.53;;;12.70;99.90;;;-146.47;100.00;66290.13;4951902;28;20233;-79
2020/12/23 08:36:23;;;;;;;7.57;5.83;;;12.70;99.90;;;-146.47;100.00;66290.13;4931417;29;20698;-77
2020/12/23 08:39:09;;;;;;;7.60;6.43;;;12.70;99.90;;;-146.47;100.00;66290.13;4931457;29;20285;-77
2020/12/23 08:41:54;;;;;;;7.40;5.87;;;12.70;99.90;;;-146.47;100.00;66290.13;4944454;28;20254;-77
2020/12/23 08:44:39;;;;;;;7.73;5.87;;;12.70;99.90;;;-146.47;100.00;66290.13;4953350;28;20257;-77
2020/12/23 08:47:28;;;;;;;8.53;5.83;;;12.90;99.90;;;-146.47;100.00;66290.13;4953750;28;20214;-77
2020/12/23 08:50:18;;;;;;;6.27;5.37;;;12.70;99.90;;;-146.47;100.00;66290.13;4953221;29;20293;-77
2020/12/23 08:53:03;;;;;;;5.67;5.03;;;12.70;99.90;;;-146.47;100.00;66290.13;4947898;29;20358;-77
2020/12/23 08:55:48;;;;;;;6.77;4.97;;;12.70;99.90;;;-146.47;100.00;66290.13;4946590;29;20266;-77
2020/12/23 08:58:34;;;;;;;6.33;4.73;;;12.70;99.90;;;-146.47;100.00;66290.13;4940451;28;20740;-76
2020/12/23 09:01:23;;;;;;;8.33;5.10;;;12.70;99.90;;;-146.47;100.00;66290.13;4953418;29;20302;-76
2020/12/23 09:04:11;;;;;;;7.80;4.93;;;12.70;99.90;;;-146.47;100.00;66290.13;4942942;28;20220;-77
2020/12/23 09:06:59;;;;;;;7.30;4.77;;;12.70;99.90;;;-146.47;100.00;66290.13;4934842;29;20214;-77
2020/12/23 09:09:43;;;;;;;5.23;4.73;;;12.70;99.90;;;-146.47;100.00;66290.13;4934776;29;20222;-77
2020/12/23 09:12:29;;;;;;;6.63;4.90;;;12.70;99.90;;;-146.47;100.00;66290.13;4952528;28;20234;-77
2020/12/23 09:15:15;;;;;;;6.80;4.87;;;12.70;99.90;;;-146.47;100.00;66290.13;4947281;29;20238;-77
2020/12/23 09:18:12;;;;;;;8.60;5.40;;;12.70;99.90;;;-146.47;100.00;66290.13;4936226;29;20725;-77
2020/12/23 09:20:58;;;;;;;6.43;4.57;;;12.70;99.90;;;-146.47;100.00;66290.13;4938385;29;20287;-77
2020/12/23 09:23:44;;;;;;;6.60;4.73;;;12.70;99.90;;;-146.47;100.00;66290.13;4952922;29;20230;-77
2020/12/23 09:26:29;;;;;;;5.50;4.23;;;12.70;99.90;;;-146.47;100.00;66290.13;4947336;29;20255;-77
2020/12/23 09:29:14;;;;;;;8.37;5.97;;;12.70;99.90;;;-146.47;100.00;66290.13;4941825;29;20224;-78
2020/12/23 09:32:02;;;;;;;7.47;5.53;;;12.80;99.90;;;-146.47;100.00;66290.13;4951273;29;20249;-78
2020/12/23 09:34:47;;;;;;;6.33;5.47;;;12.80;99.90;;;-146.47;100.00;66290.13;4936854;28;20696;-77
2020/12/23 09:37:32;;;;;;;7.70;4.70;;;12.80;99.90;;;-146.47;100.00;66290.13;4936872;29;20216;-78
2020/12/23 09:40:18;;;;;;;6.83;4.43;;;12.80;99.90;;;-146.47;100.00;66290.13;4937362;29;20235;-77
2020/12/23 09:43:13;;;;;;;6.07;4.67;;;12.80;99.90;;;-146.47;100.00;66290.13;4944179;29;20241;-77
2020/12/23 09:46:00;;;;;;;6.87;4.67;;;12.80;99.90;;;-146.47;100.00;66290.13;4955044;28;20287;-77
2020/12/23 09:48:45;;;;;;;6.63;3.90;;;12.80;99.90;;;-146.47;100.00;66290.13;4944102;29;20295;-77
2020/12/23 09:51:30;;;;;;;6.23;4.90;;;12.80;99.90;;;-146.47;100.00;66290.13;4936254;29;20250;-77
2020/12/23 09:54:16;;;;;;;6.93;4.73;;;12.80;99.90;;;-146.47;100.00;66290.13;4942231;28;20329;-77
2020/12/23 09:57:02;;;;;;;5.43;4.87;;;12.80;99.90;;;-146.47;100.00;66290.13;4945556;29;20283;-77
2020/12/23 09:59:47;;;;;;;6.47;4.40;;;12.80;99.90;;;-146.47;100.00;66290.13;4964333;28;20218;-77
2020/12/23 10:02:33;;;;;;;7.50;4.90;;;12.80;99.90;;;-146.47;100.00;66290.13;4942140;29;20432;-77
2020/12/23 10:05:17;;;;;;;8.27;5.17;;;12.80;99.90;;;-146.47;100.00;66290.13;4936555;29;20209;-77
2020/12/23 10:08:04;;;;;;;7.07;5.10;;;12.80;99.90;;;-146.47;100.00;66290.13;4947988;29;20263;-77
2020/12/23 10:10:49;;;;;;;7.70;5.87;;;12.80;99.90;;;-146.47;100.00;66290.13;4936292;29;20219;-77
2020/12/23 10:13:35;;;;;;;6.60;5.17;;;12.80;99.90;;;-146.47;100.00;66290.13;4944334;29;20286;-77
2020/12/23 10:16:20;;;;;;;6.43;5.33;;;12.80;99.90;;;-146.47;100.00;66290.13;4936773;29;20251;-77
2020/12/23 10:19:05;;;;;;;9.07;5.10;;;12.80;99.90;;;-146.47;100.00;66290.13;4942955;29;20210;-77
2020/12/23 10:21:50;;;;;;;7.67;6.13;;;12.80;99.90;;;-146.47;100.00;66290.13;4946521;29;20239;-77
2020/12/23 10:24:36;;;;;;;8.73;5.83;;;12.80;99.90;;;-146.47;100.00;66290.13;4944578;29;20210;-77
2020/12/23 10:27:21;;;;;;;9.87;7.10;;;12.80;99.90;;;-146.47;100.00;66290.13;4940550;29;20234;-77
2020/12/23 10:30:10;;;;;;;7.97;5.50;;;12.80;99.90;;;-146.47;100.00;66290.13;4938351;29;20230;-77
2020/12/23 10:32:55;;;;;;;8.80;6.43;;;12.80;99.90;;;-146.47;100.00;66290.13;4935875;29;20266;-77
2020/12/23 10:35:40;;;;;;;8.67;5.93;;;12.80;99.90;;;-146.47;100.00;66290.13;4935997;29;20262;-77
2020/12/23 10:38:26;;;;;;;8.00;5.70;;;12.80;99.90;;;-146.47;100.00;66290.13;4947142;29;20210;-77
2020/12/23 10:41:17;;;;;;;9.73;6.60;;;12.80;99.90;;;-146.47;100.00;66290.13;4936381;29;20207;-77
2020/12/23 10:44:02;;;;;;;10.77;7.80;;;12.80;99.90;;;-146.47;100.00;66290.13;4934846;29;20251;-77
2020/12/23 10:46:53;;;;;;;9.00;6.80;;;12.80;99.90;;;-146.47;100.00;66290.13;4935766;29;20214;-77
2020/12/23 10:49:38;;;;;;;8.57;6.47;;;12.90;99.90;;;-146.47;100.00;66290.13;4935158;29;20231;-77
2020/12/23 10:52:23;;;;;;;10.17;6.50;;;12.90;99.90;;;-146.47;100.00;66290.13;4935639;28;20642;-77
2020/12/23 10:55:08;;;;;;;9.47;6.67;;;12.90;99.90;;;-146.47;100.00;66290.13;4946236;29;20222;-77
2020/12/23 10:57:53;;;;;;;9.93;6.60;;;12.90;99.90;;;-146.47;100.00;66290.13;4938834;29;20700;-77
2020/12/23 11:00:39;;;;;;;8.93;7.43;;;12.90;99.90;;;-146.47;100.00;66290.13;4948998;29;20207;-78
2020/12/23 11:03:24;;;;;;;10.20;7.23;;;12.90;99.90;;;-146.47;100.00;66290.13;4936014;29;20639;-78
2020/12/23 11:06:12;;;;;;;11.90;8.23;;;12.90;99.90;;;-146.47;100.00;66290.13;4936199;28;20245;-78
2020/12/23 11:08:57;;;;;;;9.80;7.40;;;12.90;99.90;;;-146.47;100.00;66290.13;4945160;29;20219;-79